Time;durP1;ratioP1;P1;durP2;ratioP2;P2;SDS_P1;SDS_P2;PMS_P1;PMS_P2;Temp;Humidity;BMP_temperature;BMP_pressure;BME280_temperature;BME280_humidity;BME280_pressure;Samples;Min_cycle;Max_cycle;Signal;HPM_P1;HPM_P2
2023/09/23 00:00:04;;;;;;;21.60;4.28;;;18.10;87.70;;;;;;5028401;28;20425;-56
2023/09/23 00:02:29;;;;;;;27.17;4.30;;;18.10;87.70;;;;;;5028119;28;20029;-56
2023/09/23 00:04:55;;;;;;;27.48;5.10;;;18.10;87.80;;;;;;5010584;28;20077;-56
2023/09/23 00:07:21;;;;;;;18.15;3.95;;;18.10;87.90;;;;;;5026905;28;20037;-56
2023/09/23 00:09:47;;;;;;;21.23;3.85;;;18.00;87.90;;;;;;5027991;28;20030;-56
2023/09/23 00:12:13;;;;;;;19.00;4.03;;;18.00;88.00;;;;;;5026581;28;20080;-56
2023/09/23 00:14:40;;;;;;;20.67;4.97;;;18.00;88.10;;;;;;5043449;28;20029;-56
2023/09/23 00:17:07;;;;;;;15.00;3.67;;;18.00;88.20;;;;;;5028166;28;20029;-55
2023/09/23 00:19:34;;;;;;;16.45;4.00;;;18.00;88.30;;;;;;5026696;28;20041;-56
2023/09/23 00:22:01;;;;;;;18.02;3.92;;;18.00;88.30;;;;;;5028145;28;20034;-55
2023/09/23 00:24:27;;;;;;;20.58;4.00;;;18.00;88.40;;;;;;5042922;28;20037;-57
2023/09/23 00:26:58;;;;;;;15.13;3.60;;;18.00;88.40;;;;;;5043211;28;20030;-56
2023/09/23 00:29:27;;;;;;;14.55;3.88;;;17.90;88.40;;;;;;5027832;28;20022;-56
2023/09/23 00:31:54;;;;;;;12.10;3.65;;;17.90;88.50;;;;;;5026421;28;20030;-56
2023/09/23 00:34:23;;;;;;;12.25;3.40;;;17.90;88.50;;;;;;5026229;28;20513;-56
2023/09/23 00:36:50;;;;;;;22.42;3.70;;;17.90;88.50;;;;;;5026410;28;20058;-56
2023/09/23 00:39:17;;;;;;;13.80;3.38;;;17.90;88.50;;;;;;5026108;28;20489;-56
2023/09/23 00:41:43;;;;;;;18.98;3.42;;;17.90;88.60;;;;;;5058656;28;20033;-56
2023/09/23 00:44:10;;;;;;;13.52;2.92;;;17.90;88.60;;;;;;5026394;28;20026;-55
2023/09/23 00:46:36;;;;;;;13.43;3.30;;;17.90;88.60;;;;;;5027651;28;20033;-56
2023/09/23 00:49:01;;;;;;;11.80;3.42;;;17.80;88.60;;;;;;5026259;28;20026;-54
2023/09/23 00:51:30;;;;;;;12.32;2.95;;;17.80;88.60;;;;;;5027580;28;20487;-55
2023/09/23 00:53:57;;;;;;;16.20;2.95;;;17.80;88.70;;;;;;5025839;28;20057;-56
2023/09/23 00:56:24;;;;;;;10.48;3.03;;;17.80;88.80;;;;;;5026145;28;20073;-55
2023/09/23 00:58:50;;;;;;;9.55;2.78;;;17.80;88.70;;;;;;5025998;28;20026;-55
2023/09/23 01:01:17;;;;;;;17.60;3.33;;;17.80;88.80;;;;;;5042645;28;20033;-56
2023/09/23 01:03:43;;;;;;;13.13;3.05;;;17.80;88.80;;;;;;5015277;28;20037;-55
2023/09/23 01:06:15;;;;;;;11.38;2.70;;;17.80;88.90;;;;;;5013073;28;20061;-56
2023/09/23 01:08:42;;;;;;;12.32;2.42;;;17.70;88.90;;;;;;5037297;28;20030;-56
2023/09/23 01:11:08;;;;;;;10.15;2.78;;;17.70;89.00;;;;;;5039014;28;20030;-56
2023/09/23 01:13:34;;;;;;;11.95;2.70;;;17.70;89.10;;;;;;5006075;28;20028;-56
2023/09/23 01:16:02;;;;;;;11.23;2.33;;;17.70;89.00;;;;;;5022171;28;20030;-56
2023/09/23 01:18:28;;;;;;;15.45;2.80;;;17.70;89.10;;;;;;5007448;28;20081;-56
2023/09/23 01:21:00;;;;;;;6.97;2.60;;;17.60;89.10;;;;;;5006049;28;20030;-56
2023/09/23 01:23:26;;;;;;;12.80;2.80;;;17.60;89.10;;;;;;5037443;28;20549;-56
2023/09/23 01:25:52;;;;;;;12.10;3.10;;;17.60;89.20;;;;;;5022045;28;20057;-57
2023/09/23 01:28:18;;;;;;;13.32;2.55;;;17.60;89.20;;;;;;5038759;28;20019;-56
2023/09/23 01:30:44;;;;;;;13.55;2.88;;;17.60;89.20;;;;;;5021971;28;20038;-55
2023/09/23 01:33:10;;;;;;;14.80;2.45;;;17.60;89.30;;;;;;5022392;28;20106;-56
2023/09/23 01:35:36;;;;;;;13.52;2.97;;;17.60;89.30;;;;;;5007648;28;20030;-54
2023/09/23 01:38:06;;;;;;;10.00;2.08;;;17.60;89.30;;;;;;5007558;28;20038;-54
2023/09/23 01:40:32;;;;;;;6.85;2.13;;;17.60;89.40;;;;;;5021665;28;20030;-56
2023/09/23 01:42:58;;;;;;;6.78;1.95;;;17.60;89.30;;;;;;5006612;28;20085;-56
2023/09/23 01:45:23;;;;;;;9.20;2.38;;;17.60;89.40;;;;;;5021876;28;20034;-56
2023/09/23 01:47:49;;;;;;;7.93;2.15;;;17.50;89.40;;;;;;5005252;28;20507;-55
2023/09/23 01:50:17;;;;;;;12.07;2.47;;;17.50;89.50;;;;;;5021286;28;20089;-56
2023/09/23 01:52:43;;;;;;;6.20;2.30;;;17.50;89.50;;;;;;5007272;28;20042;-55
2023/09/23 01:55:10;;;;;;;12.73;2.55;;;17.50;89.60;;;;;;5006482;28;20030;-55
2023/09/23 01:57:36;;;;;;;8.43;1.85;;;17.50;89.60;;;;;;5038005;28;20095;-56
2023/09/23 02:00:04;;;;;;;5.03;1.67;;;17.50;89.70;;;;;;5038224;28;20034;-56
2023/09/23 02:02:30;;;;;;;11.35;2.17;;;17.50;89.60;;;;;;5006604;28;20498;-55
2023/09/23 02:04:56;;;;;;;7.47;1.63;;;17.40;89.60;;;;;;5008223;28;20022;-55
2023/09/23 02:07:22;;;;;;;9.13;2.22;;;17.50;89.80;;;;;;5025179;28;20030;-56
2023/09/23 02:09:48;;;;;;;5.85;2.00;;;17.50;89.80;;;;;;5026193;28;20026;-55
2023/09/23 02:12:14;;;;;;;9.82;1.90;;;17.50;89.80;;;;;;5008908;28;20026;-56
2023/09/23 02:14:40;;;;;;;8.75;2.10;;;17.40;89.80;;;;;;5024950;28;20153;-56
2023/09/23 02:17:06;;;;;;;6.80;2.20;;;17.50;89.90;;;;;;5024731;28;20041;-55
2023/09/23 02:19:31;;;;;;;8.15;1.73;;;17.40;89.80;;;;;;5041205;28;20030;-55
2023/09/23 02:21:57;;;;;;;7.55;1.70;;;17.40;89.80;;;;;;5008628;28;20026;-56
2023/09/23 02:24:23;;;;;;;10.80;2.03;;;17.40;89.90;;;;;;5041237;28;20497;-56
2023/09/23 02:26:49;;;;;;;7.05;1.90;;;17.40;89.90;;;;;;5041284;28;20026;-54
2023/09/23 02:29:15;;;;;;;6.78;1.83;;;17.40;90.00;;;;;;5026147;28;20033;-53
2023/09/23 02:31:50;;;;;;;5.97;1.88;;;17.40;90.00;;;;;;5041131;28;20033;-54
2023/09/23 02:34:19;;;;;;;8.02;2.08;;;17.40;90.00;;;;;;5040485;28;20121;-53
2023/09/23 02:36:51;;;;;;;5.18;2.10;;;17.40;89.90;;;;;;5024858;28;20030;-53
2023/09/23 02:39:19;;;;;;;10.65;2.97;;;17.30;89.90;;;;;;5040617;28;20080;-53
2023/09/23 02:41:48;;;;;;;6.35;2.17;;;17.40;90.00;;;;;;5040967;28;20037;-54
2023/09/23 02:44:19;;;;;;;5.13;2.30;;;17.40;90.00;;;;;;5040727;28;20057;-53
2023/09/23 02:46:49;;;;;;;9.55;2.53;;;17.30;90.00;;;;;;5024678;28;20037;-54
2023/09/23 02:49:15;;;;;;;7.43;2.72;;;17.30;90.00;;;;;;5041083;28;20025;-53
2023/09/23 02:51:44;;;;;;;5.32;2.13;;;17.40;90.00;;;;;;5024655;28;20065;-53
2023/09/23 02:54:11;;;;;;;6.35;2.50;;;17.30;90.00;;;;;;5023477;28;20030;-53
2023/09/23 02:56:36;;;;;;;4.82;2.92;;;17.40;90.30;;;;;;5040411;28;20083;-53
2023/09/23 02:59:13;;;;;;;7.88;3.00;;;17.30;90.00;;;;;;5024009;28;20029;-53
2023/09/23 03:01:45;;;;;;;6.10;2.53;;;17.30;90.00;;;;;;5023350;28;20030;-54
2023/09/23 03:04:17;;;;;;;7.50;3.20;;;17.30;90.00;;;;;;5040165;28;20038;-53
2023/09/23 03:06:49;;;;;;;8.05;3.17;;;17.20;90.00;;;;;;5044357;28;20462;-53
2023/09/23 03:09:19;;;;;;;6.00;3.10;;;17.30;90.00;;;;;;5028055;28;20026;-54
2023/09/23 03:11:55;;;;;;;3.25;2.30;;;17.30;90.00;;;;;;5028181;28;20026;-53
2023/09/23 03:14:40;;;;;;;5.25;2.45;;;17.30;90.00;;;;;;5028122;28;20037;-53
2023/09/23 03:17:07;;;;;;;7.80;2.58;;;17.20;90.00;;;;;;5029303;28;20033;-53
2023/09/23 03:19:33;;;;;;;7.80;2.95;;;17.30;90.00;;;;;;5044329;28;20030;-53
2023/09/23 03:21:59;;;;;;;6.60;2.95;;;17.30;90.00;;;;;;5029181;28;20120;-53
2023/09/23 03:24:25;;;;;;;7.20;2.78;;;17.30;90.00;;;;;;5029108;28;20038;-53
2023/09/23 03:26:54;;;;;;;4.68;2.65;;;17.20;90.00;;;;;;5044216;28;20045;-53
2023/09/23 03:29:22;;;;;;;7.05;3.00;;;17.20;90.00;;;;;;5027700;28;20082;-53
2023/09/23 03:31:48;;;;;;;5.80;2.67;;;17.20;90.00;;;;;;5044133;28;20046;-53
2023/09/23 03:34:14;;;;;;;5.53;2.70;;;17.20;90.00;;;;;;5044198;28;20086;-53
2023/09/23 03:36:44;;;;;;;4.82;2.80;;;17.20;89.90;;;;;;5028978;28;20030;-53
2023/09/23 03:39:10;;;;;;;7.38;3.10;;;17.20;90.00;;;;;;5044007;28;20042;-54
2023/09/23 03:41:37;;;;;;;6.70;3.00;;;17.20;90.00;;;;;;5044087;28;20117;-53
2023/09/23 03:44:04;;;;;;;5.03;2.35;;;17.20;90.00;;;;;;5028783;28;20030;-53
2023/09/23 03:46:29;;;;;;;5.63;2.75;;;17.20;90.00;;;;;;5028871;28;20049;-53
2023/09/23 03:48:55;;;;;;;6.90;2.95;;;17.20;90.00;;;;;;5043882;28;20033;-53
2023/09/23 03:51:21;;;;;;;4.60;2.78;;;17.20;90.00;;;;;;5028695;28;20022;-53
2023/09/23 03:53:51;;;;;;;5.95;2.92;;;17.20;90.00;;;;;;5043951;28;20089;-53
2023/09/23 03:56:16;;;;;;;6.20;3.78;;;17.20;90.00;;;;;;5042995;28;20032;-53
2023/09/23 03:58:43;;;;;;;7.28;4.32;;;17.20;90.00;;;;;;5028337;28;20045;-54
2023/09/23 04:01:11;;;;;;;8.35;4.13;;;17.20;90.10;;;;;;5032923;28;20030;-53
2023/09/23 04:03:36;;;;;;;8.18;3.72;;;17.20;90.10;;;;;;5013172;28;20087;-54
2023/09/23 04:06:05;;;;;;;5.82;3.70;;;17.10;90.20;;;;;;5016300;28;20505;-56
2023/09/23 04:08:30;;;;;;;7.30;3.10;;;17.10;90.20;;;;;;5032024;28;20041;-55
2023/09/23 04:10:56;;;;;;;7.03;3.33;;;17.10;90.20;;;;;;5024403;28;20027;-56
2023/09/23 04:13:22;;;;;;;4.82;2.97;;;17.20;90.30;;;;;;5024589;28;20030;-56
2023/09/23 04:15:48;;;;;;;5.65;3.22;;;17.10;90.30;;;;;;5019820;28;20062;-56
2023/09/23 04:18:14;;;;;;;4.05;2.83;;;17.10;90.60;;;;;;5019711;28;20037;-56
2023/09/23 04:20:43;;;;;;;3.70;2.75;;;17.10;90.30;;;;;;5005240;28;20031;-56
2023/09/23 04:23:09;;;;;;;4.10;2.42;;;17.10;90.30;;;;;;5006255;28;20037;-56
2023/09/23 04:25:34;;;;;;;4.00;2.92;;;17.10;90.30;;;;;;5006304;28;20022;-56
2023/09/23 04:28:01;;;;;;;4.90;2.55;;;17.10;90.30;;;;;;5006390;28;20026;-56
2023/09/23 04:30:27;;;;;;;3.28;2.40;;;17.10;90.30;;;;;;5005028;28;20141;-56
2023/09/23 04:32:55;;;;;;;6.13;3.13;;;17.00;90.30;;;;;;5007139;28;20027;-56
2023/09/23 04:35:20;;;;;;;5.40;2.53;;;17.10;90.40;;;;;;5023016;28;20026;-56
2023/09/23 04:37:46;;;;;;;3.75;2.55;;;17.10;90.50;;;;;;5008263;28;20122;-56
2023/09/23 04:40:12;;;;;;;3.50;2.60;;;17.00;90.50;;;;;;5008211;28;20030;-56
2023/09/23 04:42:39;;;;;;;5.72;2.63;;;17.10;90.50;;;;;;5007700;28;20434;-56
2023/09/23 04:45:05;;;;;;;5.40;2.53;;;17.00;90.50;;;;;;5006600;28;20050;-56
2023/09/23 04:47:31;;;;;;;3.85;2.40;;;17.00;90.60;;;;;;5005164;28;20030;-56
2023/09/23 04:49:58;;;;;;;8.68;3.17;;;17.00;90.60;;;;;;5022838;28;20069;-56
2023/09/23 04:52:24;;;;;;;5.65;2.80;;;17.00;90.70;;;;;;5022885;28;20061;-56
2023/09/23 04:54:53;;;;;;;5.10;2.60;;;17.10;90.70;;;;;;5007861;28;20023;-57
2023/09/23 04:57:19;;;;;;;7.78;2.97;;;17.00;90.70;;;;;;5022872;28;20052;-56
2023/09/23 04:59:44;;;;;;;6.28;3.35;;;17.00;90.70;;;;;;5022861;28;20560;-56
2023/09/23 05:02:17;;;;;;;11.05;4.45;;;17.00;90.80;;;;;;5022856;28;20031;-56
2023/09/23 05:04:45;;;;;;;7.22;2.88;;;17.00;90.70;;;;;;5007671;28;20027;-56
2023/09/23 05:07:12;;;;;;;7.32;2.97;;;17.00;90.80;;;;;;5022599;28;20026;-56
2023/09/23 05:09:41;;;;;;;5.82;2.95;;;17.00;90.80;;;;;;5022388;28;20049;-56
2023/09/23 05:12:08;;;;;;;9.25;3.58;;;17.00;90.80;;;;;;5007482;28;20042;-56
2023/09/23 05:14:34;;;;;;;11.02;3.03;;;17.00;90.80;;;;;;5022281;28;20026;-56
2023/09/23 05:16:59;;;;;;;5.13;3.08;;;17.00;90.80;;;;;;5022671;28;20041;-56
2023/09/23 05:19:27;;;;;;;6.22;2.97;;;17.00;90.80;;;;;;5038877;28;20038;-56
2023/09/23 05:21:53;;;;;;;6.78;3.35;;;16.90;90.70;;;;;;5022371;28;20030;-56
2023/09/23 05:24:21;;;;;;;3.92;2.45;;;17.00;90.80;;;;;;5022120;28;20030;-56
2023/09/23 05:26:49;;;;;;;5.80;2.78;;;17.00;90.80;;;;;;5022431;28;20026;-56
2023/09/23 05:29:15;;;;;;;7.82;2.97;;;16.90;90.80;;;;;;5021801;28;20034;-56
2023/09/23 05:31:41;;;;;;;6.95;2.60;;;16.90;90.80;;;;;;5022497;28;20026;-56
2023/09/23 05:34:07;;;;;;;8.80;2.80;;;16.90;90.80;;;;;;5022183;28;20022;-56
2023/09/23 05:36:32;;;;;;;7.93;2.97;;;16.90;90.80;;;;;;5022274;28;20053;-56
2023/09/23 05:38:59;;;;;;;6.90;2.38;;;16.90;90.90;;;;;;5022116;28;20034;-57
2023/09/23 05:41:25;;;;;;;6.32;2.72;;;17.00;90.90;;;;;;5006971;28;20055;-56
2023/09/23 05:43:53;;;;;;;5.97;2.78;;;16.90;90.90;;;;;;5006795;28;20113;-56
2023/09/23 05:46:18;;;;;;;7.20;2.78;;;16.90;90.90;;;;;;5021657;28;20487;-56
2023/09/23 05:48:48;;;;;;;5.25;2.55;;;16.90;90.90;;;;;;5006702;28;20026;-56
2023/09/23 05:51:14;;;;;;;4.18;2.38;;;16.90;90.90;;;;;;5021703;28;20108;-56
2023/09/23 05:53:40;;;;;;;7.13;2.45;;;16.90;90.90;;;;;;5021893;28;20030;-56
2023/09/23 05:56:06;;;;;;;4.55;2.20;;;16.90;91.00;;;;;;5021784;28;20042;-56
2023/09/23 05:58:31;;;;;;;6.90;2.17;;;16.90;91.00;;;;;;5038176;28;20030;-56
2023/09/23 06:00:57;;;;;;;6.38;2.17;;;16.80;91.00;;;;;;5006722;28;20089;-55
2023/09/23 06:03:23;;;;;;;8.80;2.28;;;16.90;91.00;;;;;;5021944;28;20037;-56
2023/09/23 06:05:49;;;;;;;4.18;2.40;;;16.90;91.00;;;;;;5021627;28;20078;-56
2023/09/23 06:08:14;;;;;;;5.53;2.25;;;16.90;91.00;;;;;;5021760;28;20023;-56
2023/09/23 06:10:40;;;;;;;2.90;1.90;;;16.80;91.00;;;;;;5006880;28;20022;-56
2023/09/23 06:13:06;;;;;;;4.68;2.30;;;16.90;91.00;;;;;;5021667;28;20521;-56
2023/09/23 06:15:32;;;;;;;7.53;2.22;;;16.80;91.00;;;;;;5021734;28;20036;-56
2023/09/23 06:18:01;;;;;;;5.50;2.22;;;16.80;91.00;;;;;;5022145;28;20034;-56
2023/09/23 06:20:26;;;;;;;6.22;2.20;;;16.80;90.90;;;;;;5021734;28;20440;-56
2023/09/23 06:22:52;;;;;;;5.43;2.10;;;16.80;90.90;;;;;;5037996;28;20034;-56
2023/09/23 06:25:18;;;;;;;3.90;2.20;;;16.80;90.90;;;;;;5025544;28;20018;-56
2023/09/23 06:27:43;;;;;;;4.68;2.30;;;16.80;91.00;;;;;;5034643;28;20109;-57
2023/09/23 06:30:09;;;;;;;8.30;2.22;;;16.80;90.90;;;;;;5021107;28;20417;-56
2023/09/23 06:32:35;;;;;;;6.60;2.00;;;16.80;90.90;;;;;;5005125;28;20034;-56
2023/09/23 06:35:02;;;;;;;6.43;2.20;;;16.80;90.90;;;;;;5005129;28;20031;-56
2023/09/23 06:37:27;;;;;;;5.93;1.90;;;16.90;90.90;;;;;;5021280;28;20046;-56
2023/09/23 06:39:53;;;;;;;8.90;2.33;;;16.80;90.90;;;;;;5005375;28;20077;-56
2023/09/23 06:42:19;;;;;;;7.75;1.90;;;16.80;90.90;;;;;;5008831;28;20026;-56
2023/09/23 06:44:45;;;;;;;5.05;2.00;;;16.90;90.90;;;;;;5008800;28;20033;-56
2023/09/23 06:47:10;;;;;;;9.20;1.75;;;16.80;90.80;;;;;;5008983;28;20035;-56
2023/09/23 06:49:36;;;;;;;6.38;1.98;;;16.80;90.90;;;;;;4992750;28;20022;-56
2023/09/23 06:52:02;;;;;;;4.05;1.70;;;16.80;90.90;;;;;;5010027;28;20029;-56
2023/09/23 06:54:27;;;;;;;5.15;1.80;;;16.80;90.90;;;;;;5009956;28;20367;-56
2023/09/23 06:56:54;;;;;;;7.60;2.00;;;16.80;90.90;;;;;;5025002;28;20470;-56
2023/09/23 06:59:20;;;;;;;3.90;1.58;;;16.80;90.90;;;;;;5024772;28;20475;-55
2023/09/23 07:01:52;;;;;;;1.90;1.60;;;16.80;90.90;;;;;;5008740;28;20042;-56
2023/09/23 07:04:18;;;;;;;4.70;2.05;;;16.80;91.00;;;;;;5024823;28;20167;-53
2023/09/23 07:06:43;;;;;;;2.83;1.40;;;16.80;90.90;;;;;;5024949;28;20026;-53
2023/09/23 07:09:09;;;;;;;4.40;1.88;;;16.80;90.90;;;;;;5009717;28;20026;-53
2023/09/23 07:11:35;;;;;;;3.95;1.48;;;16.80;90.90;;;;;;5009675;28;20053;-53
2023/09/23 07:14:03;;;;;;;3.80;1.95;;;16.80;90.90;;;;;;5008146;28;20038;-53
2023/09/23 07:16:29;;;;;;;2.85;1.60;;;16.70;91.20;;;;;;5009603;28;20062;-53
2023/09/23 07:18:54;;;;;;;3.50;1.63;;;16.80;90.90;;;;;;5024698;28;20438;-53
2023/09/23 07:21:20;;;;;;;3.20;1.45;;;16.80;90.90;;;;;;5009582;28;20030;-53
2023/09/23 07:23:46;;;;;;;2.13;1.70;;;16.80;90.90;;;;;;5009348;28;20034;-53
2023/09/23 07:26:21;;;;;;;4.22;1.50;;;16.80;90.90;;;;;;5008002;28;20034;-54
2023/09/23 07:28:46;;;;;;;3.28;1.48;;;16.70;90.90;;;;;;5009424;28;20418;-54
2023/09/23 07:31:12;;;;;;;2.40;1.40;;;16.80;90.90;;;;;;5009444;28;20061;-53
2023/09/23 07:33:38;;;;;;;2.25;1.30;;;16.90;90.90;;;;;;5007914;28;20022;-53
2023/09/23 07:36:15;;;;;;;2.13;1.13;;;16.80;90.90;;;;;;5007798;28;20045;-53
2023/09/23 07:38:41;;;;;;;3.70;1.40;;;16.80;90.80;;;;;;5009213;28;20027;-54
2023/09/23 07:41:07;;;;;;;3.63;1.40;;;16.80;90.80;;;;;;5009306;28;20038;-53
2023/09/23 07:43:32;;;;;;;3.40;1.42;;;16.80;90.80;;;;;;5024031;28;20053;-53
2023/09/23 07:45:58;;;;;;;4.95;1.40;;;16.80;90.80;;;;;;5007656;28;20022;-53
2023/09/23 07:48:23;;;;;;;2.42;1.30;;;16.90;90.80;;;;;;5008896;28;20058;-53
2023/09/23 07:50:49;;;;;;;2.85;1.40;;;16.90;90.80;;;;;;5023996;28;20022;-54
2023/09/23 07:53:15;;;;;;;2.97;1.48;;;16.80;90.80;;;;;;5024041;28;20039;-53
2023/09/23 07:55:41;;;;;;;2.03;1.50;;;16.90;90.70;;;;;;5037072;28;20182;-53
2023/09/23 07:58:07;;;;;;;1.73;1.27;;;16.90;90.70;;;;;;5016381;28;20038;-53
2023/09/23 08:00:32;;;;;;;3.80;1.60;;;16.90;90.70;;;;;;5027991;28;20476;-53
2023/09/23 08:02:58;;;;;;;1.98;1.23;;;16.90;90.70;;;;;;5026678;28;20030;-53
2023/09/23 08:05:24;;;;;;;2.08;1.20;;;16.90;90.70;;;;;;5027627;28;20022;-53
2023/09/23 08:07:52;;;;;;;5.35;1.42;;;16.90;90.70;;;;;;5027053;28;20056;-53
2023/09/23 08:10:18;;;;;;;1.67;1.00;;;16.90;90.70;;;;;;5010261;28;20037;-53
2023/09/23 08:12:44;;;;;;;3.83;1.40;;;17.00;90.80;;;;;;5027844;28;20096;-53
2023/09/23 08:15:11;;;;;;;9.63;1.73;;;16.90;90.80;;;;;;5024474;28;20056;-53
2023/09/23 08:17:38;;;;;;;5.00;1.17;;;16.90;90.90;;;;;;5025315;28;20048;-54
2023/09/23 08:20:17;;;;;;;7.90;2.20;;;16.90;90.90;;;;;;5029074;28;20033;-53
2023/09/23 08:22:43;;;;;;;13.07;2.47;;;16.90;91.00;;;;;;5024638;28;20033;-54
2023/09/23 08:25:08;;;;;;;9.85;2.38;;;16.90;91.00;;;;;;5023357;28;20045;-53
2023/09/23 08:27:34;;;;;;;10.65;2.38;;;16.90;90.90;;;;;;5041258;28;20371;-53
2023/09/23 08:29:59;;;;;;;7.25;1.73;;;17.00;90.90;;;;;;5007888;28;20022;-53
2023/09/23 08:32:25;;;;;;;17.42;2.72;;;17.00;91.00;;;;;;5042635;28;20026;-53
2023/09/23 08:34:50;;;;;;;20.42;3.17;;;17.00;91.00;;;;;;5026845;28;20066;-53
2023/09/23 08:37:16;;;;;;;23.95;3.80;;;17.00;91.00;;;;;;4993803;28;20110;-53
2023/09/23 08:39:41;;;;;;;29.90;4.78;;;17.00;91.10;;;;;;5022918;28;20022;-53
2023/09/23 08:42:07;;;;;;;42.03;4.78;;;17.00;91.20;;;;;;5008466;28;20481;-53
2023/09/23 08:44:33;;;;;;;54.67;6.18;;;17.00;91.10;;;;;;5037123;28;20050;-54
2023/09/23 08:46:59;;;;;;;52.05;6.18;;;17.10;91.20;;;;;;5025126;28;20049;-53
2023/09/23 08:49:24;;;;;;;45.17;5.50;;;17.10;91.20;;;;;;5023612;28;20018;-53
2023/09/23 08:51:54;;;;;;;44.85;5.38;;;17.10;91.10;;;;;;5017624;28;20030;-53
2023/09/23 08:54:22;;;;;;;37.22;4.88;;;17.10;91.10;;;;;;5019625;28;20042;-54
2023/09/23 08:56:47;;;;;;;32.10;5.00;;;17.10;91.00;;;;;;5044953;28;20080;-53
2023/09/23 08:59:14;;;;;;;44.85;6.10;;;17.20;91.00;;;;;;5015673;28;20025;-53
2023/09/23 09:01:43;;;;;;;43.28;6.25;;;17.20;91.00;;;;;;5008951;28;20037;-53
2023/09/23 09:04:08;;;;;;;41.80;5.97;;;17.20;91.00;;;;;;5032012;28;20030;-53
2023/09/23 09:06:34;;;;;;;40.22;6.55;;;17.20;91.00;;;;;;5029820;28;20112;-53
2023/09/23 09:09:02;;;;;;;118.82;11.02;;;17.20;91.00;;;;;;5043163;28;20026;-53
2023/09/23 09:11:27;;;;;;;67.03;9.00;;;17.30;91.00;;;;;;5022202;28;20121;-53
2023/09/23 09:13:53;;;;;;;61.42;7.60;;;17.30;91.00;;;;;;5052148;28;20050;-54
2023/09/23 09:16:20;;;;;;;50.17;7.20;;;17.30;90.90;;;;;;5048377;28;20056;-53
2023/09/23 09:18:50;;;;;;;61.50;7.70;;;17.30;90.90;;;;;;5023465;28;20076;-53
2023/09/23 09:21:15;;;;;;;74.22;10.20;;;17.30;90.80;;;;;;5009281;28;20561;-53
2023/09/23 09:23:41;;;;;;;85.78;10.00;;;17.40;90.70;;;;;;5017152;28;20030;-53
2023/09/23 09:26:06;;;;;;;78.43;9.55;;;17.40;90.80;;;;;;5020629;28;20073;-53
2023/09/23 09:28:32;;;;;;;75.05;10.68;;;17.50;90.70;;;;;;5016931;28;20022;-56
2023/09/23 09:30:58;;;;;;;78.00;10.75;;;17.50;90.70;;;;;;5026046;28;20040;-56
2023/09/23 09:33:25;;;;;;;103.95;12.52;;;17.50;90.70;;;;;;5001914;28;20037;-56
2023/09/23 09:35:57;;;;;;;94.00;11.00;;;17.60;90.80;;;;;;5025419;28;20053;-56
2023/09/23 09:38:24;;;;;;;127.85;13.32;;;17.60;90.70;;;;;;5002276;28;20064;-56
2023/09/23 09:40:50;;;;;;;98.13;13.63;;;17.60;90.80;;;;;;5028970;28;20041;-56
2023/09/23 09:43:16;;;;;;;142.55;17.00;;;17.60;90.60;;;;;;5030478;28;20030;-56
2023/09/23 09:45:42;;;;;;;168.65;18.85;;;17.70;90.80;;;;;;5029435;28;20092;-56
2023/09/23 09:48:08;;;;;;;186.88;22.75;;;17.70;90.90;;;;;;5011612;28;20045;-56
2023/09/23 09:50:34;;;;;;;167.93;20.77;;;17.80;91.00;;;;;;5039513;28;20022;-56
2023/09/23 09:52:59;;;;;;;146.07;19.00;;;17.80;90.90;;;;;;5006530;28;20030;-56
2023/09/23 09:55:25;;;;;;;207.68;22.08;;;17.80;90.70;;;;;;5025213;28;20034;-56
2023/09/23 09:57:52;;;;;;;167.30;20.77;;;17.90;90.70;;;;;;5025795;28;20127;-56
2023/09/23 10:00:35;;;;;;;199.02;22.65;;;17.80;90.70;;;;;;5005079;28;20021;-56
2023/09/23 10:03:05;;;;;;;141.52;18.05;;;17.80;90.60;;;;;;5017342;28;20061;-56
2023/09/23 10:05:32;;;;;;;188.23;20.55;;;17.80;90.50;;;;;;5035108;28;20045;-57
2023/09/23 10:07:57;;;;;;;177.82;20.98;;;17.80;90.50;;;;;;5021597;28;20041;-56
2023/09/23 10:10:36;;;;;;;170.93;19.92;;;17.90;90.50;;;;;;5024973;28;20108;-56
2023/09/23 10:13:18;;;;;;;183.80;22.27;;;17.90;90.50;;;;;;5037375;28;20057;-56
2023/09/23 10:15:44;;;;;;;189.48;24.02;;;17.90;90.50;;;;;;5053286;28;20026;-55
2023/09/23 10:18:40;;;;;;;238.88;26.58;;;18.00;90.40;;;;;;5033110;28;20033;-56
2023/09/23 10:21:06;;;;;;;190.75;23.45;;;18.00;90.30;;;;;;5031982;28;20038;-56
2023/09/23 10:23:35;;;;;;;198.00;24.08;;;18.00;90.20;;;;;;5025555;28;20044;-56
2023/09/23 10:26:14;;;;;;;180.25;24.20;;;18.10;90.30;;;;;;5040396;28;20504;-56
2023/09/23 10:28:40;;;;;;;196.88;24.50;;;18.10;90.00;;;;;;5032023;28;20045;-56
2023/09/23 10:31:10;;;;;;;212.77;25.30;;;18.10;89.80;;;;;;5031730;28;20042;-56
2023/09/23 10:33:36;;;;;;;195.93;24.20;;;18.10;89.70;;;;;;5028868;28;20535;-56
2023/09/23 10:36:03;;;;;;;414.65;43.83;;;18.10;89.50;;;;;;5026752;28;20079;-55
2023/09/23 10:38:31;;;;;;;193.65;23.80;;;18.10;89.30;;;;;;5025165;28;20030;-56
2023/09/23 10:40:57;;;;;;;199.05;24.00;;;18.20;89.20;;;;;;5024318;28;20033;-56
2023/09/23 10:43:22;;;;;;;189.73;24.08;;;18.20;89.30;;;;;;5027925;28;20081;-56
2023/09/23 10:45:54;;;;;;;151.25;21.48;;;18.20;89.30;;;;;;5003308;28;20030;-56
2023/09/23 10:48:20;;;;;;;167.60;19.88;;;18.20;89.20;;;;;;5026165;28;20026;-56
2023/09/23 10:50:46;;;;;;;173.98;22.33;;;18.20;89.10;;;;;;5005500;28;20079;-56
2023/09/23 10:53:12;;;;;;;195.95;23.67;;;18.20;88.90;;;;;;5007398;28;20045;-56
2023/09/23 10:55:39;;;;;;;183.88;21.65;;;18.30;88.90;;;;;;5007349;28;20033;-56
2023/09/23 10:58:06;;;;;;;183.30;21.65;;;18.30;88.60;;;;;;5025549;28;20064;-56
2023/09/23 11:00:33;;;;;;;122.50;16.95;;;18.30;88.40;;;;;;5022060;28;20026;-56
2023/09/23 11:03:06;;;;;;;129.57;15.90;;;18.30;87.60;;;;;;5007809;28;20034;-56
2023/09/23 11:05:31;;;;;;;108.55;12.90;;;18.30;87.00;;;;;;5032351;28;20458;-56
2023/09/23 11:07:57;;;;;;;124.85;13.77;;;18.30;86.30;;;;;;5027098;28;20032;-56
2023/09/23 11:10:23;;;;;;;81.97;11.18;;;18.30;85.80;;;;;;5015528;28;20068;-56
2023/09/23 11:12:49;;;;;;;88.78;9.82;;;18.30;85.50;;;;;;5011682;28;20034;-56
2023/09/23 11:15:14;;;;;;;121.18;15.32;;;18.20;85.10;;;;;;5024192;28;20042;-56
2023/09/23 11:17:52;;;;;;;77.18;9.43;;;18.30;85.10;;;;;;5024256;28;20061;-56
2023/09/23 11:20:27;;;;;;;72.13;9.30;;;18.20;85.20;;;;;;5018988;28;20022;-56
2023/09/23 11:23:03;;;;;;;63.78;9.80;;;18.20;85.00;;;;;;5023160;28;20109;-56
2023/09/23 11:25:29;;;;;;;216.82;23.08;;;18.20;84.90;;;;;;5039003;28;20462;-56
2023/09/23 11:27:59;;;;;;;108.70;11.77;;;18.20;84.50;;;;;;5006702;28;20030;-56
2023/09/23 11:30:25;;;;;;;113.78;12.60;;;18.10;83.80;;;;;;5010698;28;20045;-57
2023/09/23 11:32:51;;;;;;;75.70;9.85;;;18.10;83.80;;;;;;5005880;28;20049;-56
2023/09/23 11:35:17;;;;;;;80.65;10.23;;;18.10;82.90;;;;;;5024023;28;20053;-57
2023/09/23 11:37:44;;;;;;;96.65;12.07;;;18.10;82.10;;;;;;5019130;28;20037;-56
2023/09/23 11:40:12;;;;;;;78.25;10.05;;;18.10;81.20;;;;;;5023036;28;20112;-56
2023/09/23 11:42:37;;;;;;;68.57;10.25;;;18.20;79.50;;;;;;5042166;28;20036;-56
2023/09/23 11:45:03;;;;;;;64.28;8.15;;;18.10;78.90;;;;;;5026377;28;20030;-56
2023/09/23 11:47:29;;;;;;;59.20;8.75;;;18.10;77.70;;;;;;4990624;28;21436;-56
2023/09/23 11:49:54;;;;;;;78.93;8.05;;;18.10;76.80;;;;;;5053873;28;20041;-56
2023/09/23 11:52:20;;;;;;;159.38;21.52;;;18.10;76.30;;;;;;5025050;28;20095;-56
2023/09/23 11:54:46;;;;;;;101.45;15.63;;;18.10;76.50;;;;;;5030140;28;20045;-56
2023/09/23 11:57:12;;;;;;;73.47;11.25;;;18.10;77.20;;;;;;5023080;28;20026;-53
2023/09/23 11:59:38;;;;;;;94.97;12.40;;;18.10;76.70;;;;;;5054788;28;20026;-53
2023/09/23 12:02:04;;;;;;;121.10;15.93;;;18.20;77.10;;;;;;5038848;28;20082;-53
2023/09/23 12:04:30;;;;;;;134.35;15.15;;;18.10;76.80;;;;;;5021477;28;20026;-53
2023/09/23 12:06:56;;;;;;;70.00;10.82;;;18.20;76.80;;;;;;5029570;28;20053;-53
2023/09/23 12:09:23;;;;;;;80.53;10.13;;;18.20;76.90;;;;;;5007339;28;20034;-53
2023/09/23 12:11:50;;;;;;;98.18;13.02;;;18.20;76.70;;;;;;5007886;28;20050;-53
2023/09/23 12:14:16;;;;;;;116.50;13.63;;;18.30;77.00;;;;;;5016301;28;20038;-53
2023/09/23 12:16:41;;;;;;;146.63;16.67;;;18.30;76.90;;;;;;5023379;28;20061;-53
2023/09/23 12:19:07;;;;;;;114.53;14.70;;;18.30;76.20;;;;;;5024041;28;20041;-53
2023/09/23 12:21:32;;;;;;;99.63;11.60;;;18.40;76.20;;;;;;5040654;28;20044;-53
2023/09/23 12:24:03;;;;;;;84.07;12.50;;;18.40;75.40;;;;;;5026933;28;20041;-53
2023/09/23 12:26:29;;;;;;;96.43;12.82;;;18.40;75.30;;;;;;5026119;28;20021;-53
2023/09/23 12:28:54;;;;;;;114.32;12.70;;;18.40;75.30;;;;;;5033148;28;20022;-53
2023/09/23 12:31:20;;;;;;;69.25;11.20;;;18.50;75.60;;;;;;5039121;28;20381;-53
2023/09/23 12:33:46;;;;;;;84.63;9.82;;;18.50;75.30;;;;;;5035748;28;20037;-53
2023/09/23 12:36:11;;;;;;;82.70;10.10;;;18.50;74.90;;;;;;5040231;28;20508;-53